sensor_id;sensor_type;location;lat;lon;timestamp;pressure;altitude;pressure_sealevel;temperature;humidity
44297;BME280;51842;47.450;8.654;2023-04-19T00:02:03;95798.13;;;7.47;95.34
44297;BME280;51842;47.450;8.654;2023-04-19T00:04:29;95799.72;;;7.48;94.94
44297;BME280;51842;47.450;8.654;2023-04-19T00:06:54;95792.09;;;7.52;94.77
44297;BME280;51842;47.450;8.654;2023-04-19T00:09:21;95787.53;;;7.47;94.96
44297;BME280;51842;47.450;8.654;2023-04-19T00:11:47;95784.88;;;7.47;94.66
44297;BME280;51842;47.450;8.654;2023-04-19T00:14:12;95793.88;;;7.46;95.02
44297;BME280;51842;47.450;8.654;2023-04-19T00:16:38;95791.53;;;7.50;94.63
44297;BME280;51842;47.450;8.654;2023-04-19T00:19:04;95781.91;;;7.44;94.98
44297;BME280;51842;47.450;8.654;2023-04-19T00:21:29;95787.63;;;7.52;94.67
44297;BME280;51842;47.450;8.654;2023-04-19T00:23:55;95790.41;;;7.46;94.72
44297;BME280;51842;47.450;8.654;2023-04-19T00:26:21;95786.25;;;7.50;94.79
44297;BME280;51842;47.450;8.654;2023-04-19T00:28:47;95786.94;;;7.45;94.86
44297;BME280;51842;47.450;8.654;2023-04-19T00:31:13;95789.91;;;7.49;94.81
44297;BME280;51842;47.450;8.654;2023-04-19T00:33:38;95781.97;;;7.49;94.85
44297;BME280;51842;47.450;8.654;2023-04-19T00:36:04;95785.44;;;7.49;95.02
44297;BME280;51842;47.450;8.654;2023-04-19T00:38:30;95781.75;;;7.50;94.97
44297;BME280;51842;47.450;8.654;2023-04-19T00:40:57;95782.88;;;7.54;94.74
44297;BME280;51842;47.450;8.654;2023-04-19T00:43:23;95784.72;;;7.54;94.49
44297;BME280;51842;47.450;8.654;2023-04-19T00:45:48;95782.97;;;7.59;94.79
44297;BME280;51842;47.450;8.654;2023-04-19T00:48:14;95780.06;;;7.61;94.34
44297;BME280;51842;47.450;8.654;2023-04-19T00:50:42;95774.59;;;7.68;94.43
44297;BME280;51842;47.450;8.654;2023-04-19T00:53:09;95779.19;;;7.72;93.97
44297;BME280;51842;47.450;8.654;2023-04-19T00:55:38;95782.00;;;7.65;94.54
44297;BME280;51842;47.450;8.654;2023-04-19T00:58:06;95777.09;;;7.57;94.49
44297;BME280;51842;47.450;8.654;2023-04-19T01:00:33;95777.09;;;7.57;94.73
44297;BME280;51842;47.450;8.654;2023-04-19T01:02:59;95774.84;;;7.66;94.64
44297;BME280;51842;47.450;8.654;2023-04-19T01:05:25;95772.09;;;7.61;94.43
44297;BME280;51842;47.450;8.654;2023-04-19T01:07:51;95776.13;;;7.63;94.45
44297;BME280;51842;47.450;8.654;2023-04-19T01:10:17;95764.81;;;7.68;94.19
44297;BME280;51842;47.450;8.654;2023-04-19T01:12:43;95772.41;;;7.64;94.24
44297;BME280;51842;47.450;8.654;2023-04-19T01:15:09;95768.47;;;7.67;94.46
44297;BME280;51842;47.450;8.654;2023-04-19T01:17:35;95767.94;;;7.65;94.60
44297;BME280;51842;47.450;8.654;2023-04-19T01:20:03;95764.47;;;7.64;94.48
44297;BME280;51842;47.450;8.654;2023-04-19T01:22:33;95758.13;;;7.65;94.44
44297;BME280;51842;47.450;8.654;2023-04-19T01:24:59;95758.69;;;7.68;94.25
44297;BME280;51842;47.450;8.654;2023-04-19T01:27:25;95756.50;;;7.64;94.55
44297;BME280;51842;47.450;8.654;2023-04-19T01:29:51;95758.69;;;7.68;94.55
44297;BME280;51842;47.450;8.654;2023-04-19T01:32:17;95762.22;;;7.56;95.11
44297;BME280;51842;47.450;8.654;2023-04-19T01:34:43;95765.03;;;7.67;94.79
44297;BME280;51842;47.450;8.654;2023-04-19T01:37:08;95751.28;;;7.70;94.34
44297;BME280;51842;47.450;8.654;2023-04-19T01:39:34;95751.56;;;7.68;94.87
44297;BME280;51842;47.450;8.654;2023-04-19T01:42:00;95752.03;;;7.65;94.60
44297;BME280;51842;47.450;8.654;2023-04-19T01:44:26;95752.09;;;7.70;94.58
44297;BME280;51842;47.450;8.654;2023-04-19T01:46:51;95745.19;;;7.69;94.41
44297;BME280;51842;47.450;8.654;2023-04-19T01:49:17;95744.88;;;7.65;94.38
44297;BME280;51842;47.450;8.654;2023-04-19T01:51:43;95743.34;;;7.70;94.43
44297;BME280;51842;47.450;8.654;2023-04-19T01:54:08;95747.84;;;7.69;94.67
44297;BME280;51842;47.450;8.654;2023-04-19T01:56:34;95745.19;;;7.69;94.76
44297;BME280;51842;47.450;8.654;2023-04-19T01:59:00;95743.91;;;7.72;94.20
44297;BME280;51842;47.450;8.654;2023-04-19T02:01:26;95741.81;;;7.74;94.18
44297;BME280;51842;47.450;8.654;2023-04-19T02:03:52;95742.38;;;7.76;94.12
44297;BME280;51842;47.450;8.654;2023-04-19T02:06:18;95740.19;;;7.73;94.14
44297;BME280;51842;47.450;8.654;2023-04-19T02:08:43;95737.63;;;7.78;93.95
44297;BME280;51842;47.450;8.654;2023-04-19T02:11:12;95742.53;;;7.69;94.33
44297;BME280;51842;47.450;8.654;2023-04-19T02:13:39;95734.97;;;7.61;94.60
44297;BME280;51842;47.450;8.654;2023-04-19T02:16:06;95744.41;;;7.69;94.56
44297;BME280;51842;47.450;8.654;2023-04-19T02:18:32;95729.03;;;7.71;94.45
44297;BME280;51842;47.450;8.654;2023-04-19T02:21:04;95733.13;;;7.61;94.73
44297;BME280;51842;47.450;8.654;2023-04-19T02:23:30;95730.88;;;7.70;94.81
44297;BME280;51842;47.450;8.654;2023-04-19T02:25:56;95731.44;;;7.72;94.72
44297;BME280;51842;47.450;8.654;2023-04-19T02:28:22;95732.72;;;7.70;94.43
44297;BME280;51842;47.450;8.654;2023-04-19T02:30:47;95727.03;;;7.78;94.17
44297;BME280;51842;47.450;8.654;2023-04-19T02:33:14;95730.00;;;7.81;94.08
44297;BME280;51842;47.450;8.654;2023-04-19T02:35:40;95731.84;;;7.81;94.43
44297;BME280;51842;47.450;8.654;2023-04-19T02:38:06;95735.22;;;7.76;94.43
44297;BME280;51842;47.450;8.654;2023-04-19T02:40:32;95730.22;;;7.80;94.28
44297;BME280;51842;47.450;8.654;2023-04-19T02:42:57;95729.44;;;7.79;94.31
44297;BME280;51842;47.450;8.654;2023-04-19T02:45:23;95733.94;;;7.79;94.72
44297;BME280;51842;47.450;8.654;2023-04-19T02:47:49;95728.16;;;7.82;94.24
44297;BME280;51842;47.450;8.654;2023-04-19T02:50:16;95731.28;;;7.79;94.01
44297;BME280;51842;47.450;8.654;2023-04-19T02:52:41;95730.72;;;7.77;94.38
44297;BME280;51842;47.450;8.654;2023-04-19T02:55:08;95733.38;;;7.77;94.29
44297;BME280;51842;47.450;8.654;2023-04-19T02:57:34;95725.75;;;7.80;94.38
44297;BME280;51842;47.450;8.654;2023-04-19T02:59:59;95734.03;;;7.84;94.20
44297;BME280;51842;47.450;8.654;2023-04-19T03:02:25;95730.47;;;7.78;94.37
44297;BME280;51842;47.450;8.654;2023-04-19T03:04:51;95726.72;;;7.74;94.98
44297;BME280;51842;47.450;8.654;2023-04-19T03:07:17;95733.94;;;7.79;94.81
44297;BME280;51842;47.450;8.654;2023-04-19T03:09:43;95725.97;;;7.79;94.72
44297;BME280;51842;47.450;8.654;2023-04-19T03:12:09;95731.06;;;7.80;94.79
44297;BME280;51842;47.450;8.654;2023-04-19T03:14:35;95729.44;;;7.79;94.61
44297;BME280;51842;47.450;8.654;2023-04-19T03:17:01;95726.56;;;7.81;94.44
44297;BME280;51842;47.450;8.654;2023-04-19T03:19:27;95720.97;;;7.82;94.36
44297;BME280;51842;47.450;8.654;2023-04-19T03:21:53;95727.66;;;7.85;94.25
44297;BME280;51842;47.450;8.654;2023-04-19T03:24:26;95724.22;;;7.84;94.14
44297;BME280;51842;47.450;8.654;2023-04-19T03:26:52;95717.06;;;7.85;94.15
44297;BME280;51842;47.450;8.654;2023-04-19T03:29:17;95720.81;;;7.89;94.05
44297;BME280;51842;47.450;8.654;2023-04-19T03:31:43;95720.31;;;7.92;94.04
44297;BME280;51842;47.450;8.654;2023-04-19T03:34:09;95711.50;;;7.86;94.04
44297;BME280;51842;47.450;8.654;2023-04-19T03:36:34;95716.25;;;7.84;94.21
44297;BME280;51842;47.450;8.654;2023-04-19T03:39:02;95713.34;;;7.86;94.02
44297;BME280;51842;47.450;8.654;2023-04-19T03:41:28;95705.97;;;7.88;94.25
44297;BME280;51842;47.450;8.654;2023-04-19T03:43:54;95712.06;;;7.88;93.96
44297;BME280;51842;47.450;8.654;2023-04-19T03:46:19;95711.81;;;7.90;93.71
44297;BME280;51842;47.450;8.654;2023-04-19T03:48:46;95709.72;;;7.92;93.60
44297;BME280;51842;47.450;8.654;2023-04-19T03:51:11;95710.47;;;7.87;93.72
44297;BME280;51842;47.450;8.654;2023-04-19T03:53:38;95709.41;;;7.88;93.93
44297;BME280;51842;47.450;8.654;2023-04-19T03:56:06;95705.16;;;7.87;93.95
44297;BME280;51842;47.450;8.654;2023-04-19T03:58:32;95703.88;;;7.90;93.82
44297;BME280;51842;47.450;8.654;2023-04-19T04:00:58;95709.88;;;7.85;94.30
44297;BME280;51842;47.450;8.654;2023-04-19T04:03:24;95704.66;;;7.91;94.31
44297;BME280;51842;47.450;8.654;2023-04-19T04:05:50;95702.50;;;7.87;94.35
44297;BME280;51842;47.450;8.654;2023-04-19T04:08:16;95708.03;;;7.86;94.07
44297;BME280;51842;47.450;8.654;2023-04-19T04:10:41;95710.16;;;7.84;94.32
44297;BME280;51842;47.450;8.654;2023-04-19T04:13:07;95707.41;;;7.79;94.32
44297;BME280;51842;47.450;8.654;2023-04-19T04:15:33;95707.19;;;7.80;94.66
44297;BME280;51842;47.450;8.654;2023-04-19T04:17:58;95712.00;;;7.83;94.59
44297;BME280;51842;47.450;8.654;2023-04-19T04:20:24;95712.53;;;7.85;94.46
44297;BME280;51842;47.450;8.654;2023-04-19T04:22:50;95710.16;;;7.84;94.72
44297;BME280;51842;47.450;8.654;2023-04-19T04:25:17;95709.09;;;7.85;94.69
44297;BME280;51842;47.450;8.654;2023-04-19T04:27:43;95703.78;;;7.85;94.78
44297;BME280;51842;47.450;8.654;2023-04-19T04:30:11;95711.66;;;7.80;95.41
44297;BME280;51842;47.450;8.654;2023-04-19T04:32:37;95709.59;;;7.82;94.97
44297;BME280;51842;47.450;8.654;2023-04-19T04:35:07;95706.69;;;7.83;95.27
44297;BME280;51842;47.450;8.654;2023-04-19T04:37:34;95709.88;;;7.85;95.20
44297;BME280;51842;47.450;8.654;2023-04-19T04:40:01;95714.97;;;7.87;94.94
44297;BME280;51842;47.450;8.654;2023-04-19T04:42:29;95710.16;;;7.84;95.03
44297;BME280;51842;47.450;8.654;2023-04-19T04:44:56;95710.94;;;7.84;95.14
44297;BME280;51842;47.450;8.654;2023-04-19T04:47:23;95715.44;;;7.84;95.06
44297;BME280;51842;47.450;8.654;2023-04-19T04:49:49;95717.63;;;7.87;95.26
44297;BME280;51842;47.450;8.654;2023-04-19T04:52:15;95719.44;;;7.86;95.01
44297;BME280;51842;47.450;8.654;2023-04-19T04:54:41;95717.34;;;7.88;95.53
44297;BME280;51842;47.450;8.654;2023-04-19T04:57:07;95722.97;;;7.92;95.01
44297;BME280;51842;47.450;8.654;2023-04-19T04:59:33;95723.22;;;7.91;94.99
44297;BME280;51842;47.450;8.654;2023-04-19T05:01:59;95720.09;;;7.94;94.94
44297;BME280;51842;47.450;8.654;2023-04-19T05:04:25;95718.47;;;7.93;94.85
44297;BME280;51842;47.450;8.654;2023-04-19T05:06:50;95720.81;;;7.89;94.71
44297;BME280;51842;47.450;8.654;2023-04-19T05:09:16;95720.59;;;7.91;94.85
44297;BME280;51842;47.450;8.654;2023-04-19T05:11:42;95716.66;;;7.93;94.88
44297;BME280;51842;47.450;8.654;2023-04-19T05:14:08;95718.25;;;7.94;94.91
44297;BME280;51842;47.450;8.654;2023-04-19T05:16:33;95720.41;;;7.97;94.94
44297;BME280;51842;47.450;8.654;2023-04-19T05:18:59;95724.44;;;8.00;94.68
44297;BME280;51842;47.450;8.654;2023-04-19T05:21:25;95724.47;;;8.05;94.35
44297;BME280;51842;47.450;8.654;2023-04-19T05:23:52;95725.03;;;8.07;94.93
44297;BME280;51842;47.450;8.654;2023-04-19T05:26:20;95722.69;;;8.10;94.59
44297;BME280;51842;47.450;8.654;2023-04-19T05:28:46;95716.34;;;8.11;94.56
44297;BME280;51842;47.450;8.654;2023-04-19T05:31:12;95719.81;;;8.12;94.64
44297;BME280;51842;47.450;8.654;2023-04-19T05:33:38;95718.50;;;8.15;94.27
44297;BME280;51842;47.450;8.654;2023-04-19T05:36:04;95726.22;;;8.16;94.25
44297;BME280;51842;47.450;8.654;2023-04-19T05:38:30;95721.50;;;8.18;94.27
44297;BME280;51842;47.450;8.654;2023-04-19T05:40:56;95722.81;;;8.21;93.99
44297;BME280;51842;47.450;8.654;2023-04-19T05:43:21;95724.19;;;8.23;93.63
44297;BME280;51842;47.450;8.654;2023-04-19T05:45:48;95722.91;;;8.26;93.46
44297;BME280;51842;47.450;8.654;2023-04-19T05:48:14;95720.03;;;8.27;93.03
44297;BME280;51842;47.450;8.654;2023-04-19T05:50:40;95729.31;;;8.30;93.36
44297;BME280;51842;47.450;8.654;2023-04-19T05:53:06;95722.91;;;8.26;93.65
44297;BME280;51842;47.450;8.654;2023-04-19T05:55:31;95720.19;;;8.21;93.25
44297;BME280;51842;47.450;8.654;2023-04-19T05:57:58;95727.41;;;8.25;93.15
44297;BME280;51842;47.450;8.654;2023-04-19T06:00:23;95724.19;;;8.23;92.62
44297;BME280;51842;47.450;8.654;2023-04-19T06:02:49;95727.41;;;8.25;92.96
44297;BME280;51842;47.450;8.654;2023-04-19T06:05:15;95728.97;;;8.21;92.03
44297;BME280;51842;47.450;8.654;2023-04-19T06:07:41;95735.16;;;8.10;92.89
44297;BME280;51842;47.450;8.654;2023-04-19T06:10:07;95730.75;;;8.16;93.42
44297;BME280;51842;47.450;8.654;2023-04-19T06:12:33;95733.69;;;8.19;92.08
44297;BME280;51842;47.450;8.654;2023-04-19T06:14:59;95724.19;;;8.23;92.33
44297;BME280;51842;47.450;8.654;2023-04-19T06:17:25;95723.69;;;8.26;92.65
44297;BME280;51842;47.450;8.654;2023-04-19T06:19:51;95724.84;;;8.30;92.05
44297;BME280;51842;47.450;8.654;2023-04-19T06:22:17;95724.97;;;8.41;92.48
44297;BME280;51842;47.450;8.654;2023-04-19T06:24:46;95727.94;;;8.44;92.01
44297;BME280;51842;47.450;8.654;2023-04-19T06:27:14;95726.34;;;8.43;91.15
44297;BME280;51842;47.450;8.654;2023-04-19T06:29:40;95731.22;;;8.51;90.97
44297;BME280;51842;47.450;8.654;2023-04-19T06:32:06;95727.75;;;8.51;91.00
44297;BME280;51842;47.450;8.654;2023-04-19T06:34:32;95723.44;;;8.45;89.41
44297;BME280;51842;47.450;8.654;2023-04-19T06:36:57;95731.31;;;8.62;89.68
44297;BME280;51842;47.450;8.654;2023-04-19T06:39:23;95734.66;;;8.74;88.59
44297;BME280;51842;47.450;8.654;2023-04-19T06:41:49;95732.91;;;8.85;88.19
44297;BME280;51842;47.450;8.654;2023-04-19T06:44:15;95729.06;;;8.97;87.73
44297;BME280;51842;47.450;8.654;2023-04-19T06:46:40;95739.00;;;9.07;86.95
44297;BME280;51842;47.450;8.654;2023-04-19T06:49:06;95727.91;;;9.15;86.00
44297;BME280;51842;47.450;8.654;2023-04-19T06:51:32;95729.31;;;9.23;85.96
44297;BME280;51842;47.450;8.654;2023-04-19T06:53:58;95736.56;;;9.33;85.08
44297;BME280;51842;47.450;8.654;2023-04-19T06:59:16;95747.56;;;9.41;84.61
44297;BME280;51842;47.450;8.654;2023-04-19T07:01:43;95742.28;;;9.46;84.09
44297;BME280;51842;47.450;8.654;2023-04-19T07:04:09;95740.22;;;9.54;83.87
44297;BME280;51842;47.450;8.654;2023-04-19T07:06:36;95740.78;;;9.61;83.51
44297;BME280;51842;47.450;8.654;2023-04-19T07:09:03;95740.44;;;9.52;82.14
44297;BME280;51842;47.450;8.654;2023-04-19T07:11:30;95745.03;;;9.24;83.04
44297;BME280;51842;47.450;8.654;2023-04-19T07:13:56;95741.38;;;9.36;82.88
44297;BME280;51842;47.450;8.654;2023-04-19T07:16:23;95744.94;;;9.46;83.68
44297;BME280;51842;47.450;8.654;2023-04-19T07:18:48;95751.56;;;9.44;83.65
44297;BME280;51842;47.450;8.654;2023-04-19T07:21:14;95747.63;;;9.52;83.02
44297;BME280;51842;47.450;8.654;2023-04-19T07:23:40;95740.44;;;9.52;82.60
44297;BME280;51842;47.450;8.654;2023-04-19T07:26:06;95739.22;;;9.33;83.40
44297;BME280;51842;47.450;8.654;2023-04-19T07:28:32;95743.63;;;9.49;83.22
44297;BME280;51842;47.450;8.654;2023-04-19T07:30:58;95752.72;;;9.53;83.14
44297;BME280;51842;47.450;8.654;2023-04-19T07:33:26;95743.88;;;9.47;83.00
44297;BME280;51842;47.450;8.654;2023-04-19T07:35:53;95741.28;;;9.58;82.37
44297;BME280;51842;47.450;8.654;2023-04-19T07:38:19;95738.69;;;9.63;82.24
44297;BME280;51842;47.450;8.654;2023-04-19T07:40:45;95744.28;;;9.66;81.52
44297;BME280;51842;47.450;8.654;2023-04-19T07:43:10;95742.66;;;9.60;82.44
44297;BME280;51842;47.450;8.654;2023-04-19T07:45:36;95740.28;;;9.64;81.93
44297;BME280;51842;47.450;8.654;2023-04-19T07:48:03;95738.69;;;9.63;81.36
44297;BME280;51842;47.450;8.654;2023-04-19T07:50:29;95740.78;;;9.61;81.43
44297;BME280;51842;47.450;8.654;2023-04-19T07:52:54;95735.63;;;9.44;81.20
44297;BME280;51842;47.450;8.654;2023-04-19T07:55:21;95737.78;;;9.52;81.78
44297;BME280;51842;47.450;8.654;2023-04-19T07:57:49;95733.38;;;9.63;81.76
44297;BME280;51842;47.450;8.654;2023-04-19T08:00:16;95735.31;;;9.72;81.56
44297;BME280;51842;47.450;8.654;2023-04-19T08:02:47;95736.66;;;9.75;80.60
44297;BME280;51842;47.450;8.654;2023-04-19T08:05:15;95735.09;;;9.79;80.40
44297;BME280;51842;47.450;8.654;2023-04-19T08:07:44;95741.47;;;9.78;80.59
44297;BME280;51842;47.450;8.654;2023-04-19T08:10:11;95735.41;;;9.88;80.58
44297;BME280;51842;47.450;8.654;2023-04-19T08:12:37;95734.97;;;9.64;79.52
44297;BME280;51842;47.450;8.654;2023-04-19T08:15:07;95732.19;;;9.48;80.00
44297;BME280;51842;47.450;8.654;2023-04-19T08:17:33;95738.28;;;9.49;80.53
44297;BME280;51842;47.450;8.654;2023-04-19T08:20:00;95734.53;;;9.45;80.86
44297;BME280;51842;47.450;8.654;2023-04-19T08:22:25;95729.72;;;9.42;80.04
44297;BME280;51842;47.450;8.654;2023-04-19T08:24:52;95732.06;;;9.65;79.53
44297;BME280;51842;47.450;8.654;2023-04-19T08:27:19;95736.53;;;9.60;79.64
44297;BME280;51842;47.450;8.654;2023-04-19T08:29:45;95744.47;;;9.55;79.06
44297;BME280;51842;47.450;8.654;2023-04-19T08:32:11;95740.44;;;9.52;80.00
44297;BME280;51842;47.450;8.654;2023-04-19T08:34:38;95742.16;;;9.63;79.15
44297;BME280;51842;47.450;8.654;2023-04-19T08:37:05;95736.03;;;9.63;79.88
44297;BME280;51842;47.450;8.654;2023-04-19T08:39:34;95738.91;;;9.56;79.15
44297;BME280;51842;47.450;8.654;2023-04-19T08:42:05;95736.66;;;9.43;79.99
44297;BME280;51842;47.450;8.654;2023-04-19T08:44:35;95736.41;;;9.44;79.81
44297;BME280;51842;47.450;8.654;2023-04-19T08:47:05;95734.38;;;9.57;78.99
44297;BME280;51842;47.450;8.654;2023-04-19T08:49:35;95739.56;;;9.73;78.79
44297;BME280;51842;47.450;8.654;2023-04-19T08:52:05;95734.50;;;9.72;78.07
44297;BME280;51842;47.450;8.654;2023-04-19T08:54:31;95742.03;;;9.48;78.79
44297;BME280;51842;47.450;8.654;2023-04-19T08:57:00;95730.16;;;9.61;78.97
44297;BME280;51842;47.450;8.654;2023-04-19T08:59:27;95735.31;;;9.40;78.83
44297;BME280;51842;47.450;8.654;2023-04-19T09:01:56;95730.59;;;9.47;79.89
44297;BME280;51842;47.450;8.654;2023-04-19T09:04:24;95729.97;;;9.72;78.29
44297;BME280;51842;47.450;8.654;2023-04-19T09:06:50;95726.13;;;9.95;77.73
44297;BME280;51842;47.450;8.654;2023-04-19T09:09:26;95723.75;;;9.94;77.70
44297;BME280;51842;47.450;8.654;2023-04-19T09:11:53;95713.91;;;9.94;77.87
44297;BME280;51842;47.450;8.654;2023-04-19T09:14:21;95716.16;;;10.18;78.18
44297;BME280;51842;47.450;8.654;2023-04-19T09:16:47;95714.41;;;10.39;77.63
44297;BME280;51842;47.450;8.654;2023-04-19T09:19:13;95711.78;;;10.44;75.90
44297;BME280;51842;47.450;8.654;2023-04-19T09:21:42;95712.66;;;10.60;76.61
44297;BME280;51842;47.450;8.654;2023-04-19T09:24:08;95709.22;;;10.75;75.20
44297;BME280;51842;47.450;8.654;2023-04-19T09:26:36;95700.22;;;10.96;76.05
44297;BME280;51842;47.450;8.654;2023-04-19T09:29:05;95704.50;;;11.02;72.91
44297;BME280;51842;47.450;8.654;2023-04-19T09:31:34;95702.41;;;11.30;72.46
44297;BME280;51842;47.450;8.654;2023-04-19T09:34:17;95696.28;;;11.34;71.43
44297;BME280;51842;47.450;8.654;2023-04-19T09:36:43;95700.78;;;11.34;71.71
44297;BME280;51842;47.450;8.654;2023-04-19T09:39:10;95700.00;;;11.59;71.80
44297;BME280;51842;47.450;8.654;2023-04-19T09:41:51;95698.66;;;11.72;70.32
44297;BME280;51842;47.450;8.654;2023-04-19T09:44:18;95696.78;;;11.77;69.93
44297;BME280;51842;47.450;8.654;2023-04-19T09:46:43;95708.00;;;11.74;69.29
44297;BME280;51842;47.450;8.654;2023-04-19T09:52:02;95694.38;;;11.71;70.48
44297;BME280;51842;47.450;8.654;2023-04-19T09:54:31;95689.03;;;11.81;69.83
44297;BME280;51842;47.450;8.654;2023-04-19T09:56:57;95684.25;;;11.88;69.03
44297;BME280;51842;47.450;8.654;2023-04-19T09:59:23;95687.44;;;11.95;67.62
44297;BME280;51842;47.450;8.654;2023-04-19T10:01:54;95684.50;;;11.76;68.25
44297;BME280;51842;47.450;8.654;2023-04-19T10:04:21;95690.38;;;11.94;68.84
44297;BME280;51842;47.450;8.654;2023-04-19T10:06:49;95682.31;;;12.14;68.52
44297;BME280;51842;47.450;8.654;2023-04-19T10:09:18;95687.69;;;12.04;68.14
44297;BME280;51842;47.450;8.654;2023-04-19T10:11:51;95682.63;;;12.02;68.81
44297;BME280;51842;47.450;8.654;2023-04-19T10:14:22;95681.28;;;12.05;67.77
44297;BME280;51842;47.450;8.654;2023-04-19T10:16:50;95679.38;;;12.16;67.41
44297;BME280;51842;47.450;8.654;2023-04-19T10:19:20;95685.31;;;11.92;68.96
44297;BME280;51842;47.450;8.654;2023-04-19T10:21:49;95672.22;;;11.91;67.93
44297;BME280;51842;47.450;8.654;2023-04-19T10:24:16;95672.72;;;12.03;69.02
44297;BME280;51842;47.450;8.654;2023-04-19T10:27:16;95671.09;;;12.22;68.21
44297;BME280;51842;47.450;8.654;2023-04-19T10:32:23;95663.28;;;12.31;66.51
44297;BME280;51842;47.450;8.654;2023-04-19T10:34:52;95667.59;;;12.27;65.99
44297;BME280;51842;47.450;8.654;2023-04-19T10:37:24;95667.94;;;12.10;68.76
44297;BME280;51842;47.450;8.654;2023-04-19T10:39:50;95663.09;;;12.17;68.47
44297;BME280;51842;47.450;8.654;2023-04-19T10:42:17;95668.38;;;12.27;66.91
44297;BME280;51842;47.450;8.654;2023-04-19T10:45:30;95660.06;;;12.34;67.49
44297;BME280;51842;47.450;8.654;2023-04-19T10:47:56;95655.63;;;12.09;66.56
44297;BME280;51842;47.450;8.654;2023-04-19T10:50:23;95659.41;;;11.77;67.50
44297;BME280;51842;47.450;8.654;2023-04-19T10:52:48;95655.22;;;11.41;69.28
44297;BME280;51842;47.450;8.654;2023-04-19T10:55:17;95648.81;;;11.16;70.83
44297;BME280;51842;47.450;8.654;2023-04-19T10:58:05;95643.75;;;11.20;69.95
44297;BME280;51842;47.450;8.654;2023-04-19T11:00:32;95639.72;;;11.63;69.07
44297;BME280;51842;47.450;8.654;2023-04-19T11:03:49;95632.88;;;12.22;67.00
44297;BME280;51842;47.450;8.654;2023-04-19T11:06:18;95629.44;;;12.71;64.49
44297;BME280;51842;47.450;8.654;2023-04-19T11:08:47;95631.63;;;13.03;64.68
44297;BME280;51842;47.450;8.654;2023-04-19T11:11:13;95623.69;;;12.93;63.10
44297;BME280;51842;47.450;8.654;2023-04-19T11:13:42;95619.03;;;13.09;64.47
44297;BME280;51842;47.450;8.654;2023-04-19T11:16:08;95622.38;;;13.30;64.28
44297;BME280;51842;47.450;8.654;2023-04-19T11:18:34;95617.22;;;13.38;60.89
44297;BME280;51842;47.450;8.654;2023-04-19T11:21:00;95619.28;;;13.47;60.31
44297;BME280;51842;47.450;8.654;2023-04-19T11:23:26;95614.50;;;13.73;60.52
44297;BME280;51842;47.450;8.654;2023-04-19T11:25:52;95620.22;;;13.61;61.28
44297;BME280;51842;47.450;8.654;2023-04-19T11:28:18;95615.22;;;13.78;59.83
44297;BME280;51842;47.450;8.654;2023-04-19T11:30:47;95611.31;;;13.71;58.83
44297;BME280;51842;47.450;8.654;2023-04-19T11:33:14;95606.53;;;13.92;59.49
44297;BME280;51842;47.450;8.654;2023-04-19T11:35:42;95605.22;;;13.89;58.75
44297;BME280;51842;47.450;8.654;2023-04-19T11:38:12;95598.69;;;14.19;59.59
44297;BME280;51842;47.450;8.654;2023-04-19T11:40:38;95597.56;;;14.68;58.62
44297;BME280;51842;47.450;8.654;2023-04-19T11:43:04;95598.06;;;14.89;56.18
44297;BME280;51842;47.450;8.654;2023-04-19T11:45:34;95590.75;;;14.95;57.03
44297;BME280;51842;47.450;8.654;2023-04-19T11:48:04;95592.56;;;14.80;55.61
44297;BME280;51842;47.450;8.654;2023-04-19T11:50:41;95592.38;;;15.10;55.18
44297;BME280;51842;47.450;8.654;2023-04-19T11:53:18;95594.81;;;14.73;55.78
44297;BME280;51842;47.450;8.654;2023-04-19T11:58:44;95587.19;;;14.80;55.41
44297;BME280;51842;47.450;8.654;2023-04-19T12:01:21;95577.94;;;14.92;56.72
44297;BME280;51842;47.450;8.654;2023-04-19T12:03:54;95581.50;;;15.20;55.03
44297;BME280;51842;47.450;8.654;2023-04-19T12:06:29;95571.50;;;15.39;54.88
44297;BME280;51842;47.450;8.654;2023-04-19T12:08:56;95577.00;;;15.15;56.09
44297;BME280;51842;47.450;8.654;2023-04-19T12:11:46;95585.44;;;15.09;55.94
44297;BME280;51842;47.450;8.654;2023-04-19T12:14:17;95580.78;;;15.14;56.56
44297;BME280;51842;47.450;8.654;2023-04-19T12:16:44;95577.03;;;15.29;55.99
44297;BME280;51842;47.450;8.654;2023-04-19T12:19:17;95577.78;;;15.16;55.84
44297;BME280;51842;47.450;8.654;2023-04-19T12:21:46;95573.94;;;15.22;54.71
44297;BME280;51842;47.450;8.654;2023-04-19T12:24:15;95572.41;;;14.83;57.48
44297;BME280;51842;47.450;8.654;2023-04-19T12:26:55;95564.47;;;15.11;56.28
44297;BME280;51842;47.450;8.654;2023-04-19T12:29:22;95571.44;;;15.12;55.96
44297;BME280;51842;47.450;8.654;2023-04-19T12:31:47;95575.34;;;15.00;57.13
44297;BME280;51842;47.450;8.654;2023-04-19T12:34:13;95568.97;;;14.64;57.07
44297;BME280;51842;47.450;8.654;2023-04-19T12:36:39;95565.34;;;14.73;56.50
44297;BME280;51842;47.450;8.654;2023-04-19T12:39:04;95567.84;;;14.84;56.25
44297;BME280;51842;47.450;8.654;2023-04-19T12:41:31;95560.94;;;14.96;58.33
44297;BME280;51842;47.450;8.654;2023-04-19T12:43:57;95566.06;;;15.12;56.02
44297;BME280;51842;47.450;8.654;2023-04-19T12:46:23;95562.53;;;14.97;55.57
44297;BME280;51842;47.450;8.654;2023-04-19T12:48:48;95558.56;;;14.95;57.03
44297;BME280;51842;47.450;8.654;2023-04-19T12:51:14;95549.09;;;14.65;57.47
44297;BME280;51842;47.450;8.654;2023-04-19T12:53:41;95549.44;;;14.39;58.06
44297;BME280;51842;47.450;8.654;2023-04-19T12:56:11;95551.16;;;14.11;58.86
44297;BME280;51842;47.450;8.654;2023-04-19T12:58:37;95548.53;;;14.25;59.15
44297;BME280;51842;47.450;8.654;2023-04-19T13:01:03;95539.00;;;14.38;59.27
44297;BME280;51842;47.450;8.654;2023-04-19T13:03:29;95541.25;;;14.49;59.59
44297;BME280;51842;47.450;8.654;2023-04-19T13:05:57;95535.75;;;14.60;58.63
44297;BME280;51842;47.450;8.654;2023-04-19T13:08:23;95545.22;;;14.33;57.17
44297;BME280;51842;47.450;8.654;2023-04-19T13:10:48;95527.84;;;14.49;58.41
44297;BME280;51842;47.450;8.654;2023-04-19T13:13:14;95526.31;;;14.43;57.07
44297;BME280;51842;47.450;8.654;2023-04-19T13:15:41;95523.72;;;14.57;57.91
44297;BME280;51842;47.450;8.654;2023-04-19T13:18:06;95526.63;;;14.79;57.60
44297;BME280;51842;47.450;8.654;2023-04-19T13:20:32;95518.72;;;14.50;57.47